Terminal Aerodrome Forecast
Issued by NWS

Home | Current Version | Previous Version | Text Only | Print | Product List | Glossary On
Versions: 1 2 3 4 5 6 7 8 9 10 11 12 13 14 15 16 17
960
FTUS43 KFGF 062323
TAFTVF
TAF
KTVF 062323Z 0700/0724 20012KT P6SM OVC100
     FM070300 21009KT P6SM SCT035 BKN070
     FM070500 23014G20KT P6SM BKN050
     FM070700 28018G25KT P6SM BKN025 OVC050
     FM071200 28022G27KT 2SM -SN OVC015
     FM071500 30024G32KT 1/2SM -SN BLSN BKN008=

USA.gov is the U.S. government's official web portal to all federal, state and local government web resources and services.